sensor_id;sensor_type;location;lat;lon;timestamp;pressure;altitude;pressure_sealevel;temperature;humidity
31239;BME280;17871;31.584;74.450;2023-02-13T00:01:35;98956.56;;;13.87;34.02
31239;BME280;17871;31.584;74.450;2023-02-13T00:04:05;98948.00;;;13.76;34.06
31239;BME280;17871;31.584;74.450;2023-02-13T00:06:34;98956.56;;;13.78;33.76
31239;BME280;17871;31.584;74.450;2023-02-13T00:09:03;98954.84;;;13.73;33.71
31239;BME280;17871;31.584;74.450;2023-02-13T00:11:33;98953.13;;;13.76;33.39
31239;BME280;17871;31.584;74.450;2023-02-13T00:14:03;98953.97;;;13.75;33.47
31239;BME280;17871;31.584;74.450;2023-02-13T00:16:33;98955.69;;;13.75;33.30
31239;BME280;17871;31.584;74.450;2023-02-13T00:19:02;98947.13;;;13.76;33.57
31239;BME280;17871;31.584;74.450;2023-02-13T00:21:31;98943.69;;;13.80;33.28
31239;BME280;17871;31.584;74.450;2023-02-13T00:24:01;98936.00;;;13.72;33.48
31239;BME280;17871;31.584;74.450;2023-02-13T00:26:30;98929.13;;;13.77;33.28
31239;BME280;17871;31.584;74.450;2023-02-13T00:28:59;98941.09;;;13.62;33.79
31239;BME280;17871;31.584;74.450;2023-02-13T00:31:28;98939.34;;;13.61;34.05
31239;BME280;17871;31.584;74.450;2023-02-13T00:33:58;98945.34;;;13.57;34.46
31239;BME280;17871;31.584;74.450;2023-02-13T00:36:27;98947.94;;;13.60;34.65
31239;BME280;17871;31.584;74.450;2023-02-13T00:38:57;98948.72;;;13.43;34.19
31239;BME280;17871;31.584;74.450;2023-02-13T00:41:26;98945.31;;;13.49;34.02
31239;BME280;17871;31.584;74.450;2023-02-13T00:43:55;98938.50;;;13.56;33.71
31239;BME280;17871;31.584;74.450;2023-02-13T00:46:24;98941.09;;;13.62;33.70
31239;BME280;17871;31.584;74.450;2023-02-13T00:48:54;98950.53;;;13.66;33.30
31239;BME280;17871;31.584;74.450;2023-02-13T00:51:23;98950.53;;;13.69;33.63
31239;BME280;17871;31.584;74.450;2023-02-13T00:53:53;98944.50;;;13.62;33.78
31239;BME280;17871;31.584;74.450;2023-02-13T00:56:22;98947.03;;;13.50;34.01
31239;BME280;17871;31.584;74.450;2023-02-13T00:58:52;98948.75;;;13.56;34.29
31239;BME280;17871;31.584;74.450;2023-02-13T01:01:24;98948.78;;;13.59;34.17
31239;BME280;17871;31.584;74.450;2023-02-13T01:03:53;98949.59;;;13.55;34.27
31239;BME280;17871;31.584;74.450;2023-02-13T01:06:24;98948.78;;;13.59;34.12
31239;BME280;17871;31.584;74.450;2023-02-13T01:08:54;98947.88;;;13.50;34.12
31239;BME280;17871;31.584;74.450;2023-02-13T01:11:26;98955.56;;;13.50;34.14
31239;BME280;17871;31.584;74.450;2023-02-13T01:13:55;98958.94;;;13.40;34.45
31239;BME280;17871;31.584;74.450;2023-02-13T01:16:28;98967.50;;;13.36;34.46
31239;BME280;17871;31.584;74.450;2023-02-13T01:18:59;98966.59;;;13.31;33.94
31239;BME280;17871;31.584;74.450;2023-02-13T01:21:30;98962.38;;;13.36;34.02
31239;BME280;17871;31.584;74.450;2023-02-13T01:24:02;98963.25;;;13.47;33.60
31239;BME280;17871;31.584;74.450;2023-02-13T01:26:34;98976.94;;;13.45;33.64
31239;BME280;17871;31.584;74.450;2023-02-13T01:29:03;98978.59;;;13.32;33.77
31239;BME280;17871;31.584;74.450;2023-02-13T01:31:33;98982.91;;;13.36;33.15
31239;BME280;17871;31.584;74.450;2023-02-13T01:34:02;98982.88;;;13.35;33.42
31239;BME280;17871;31.584;74.450;2023-02-13T01:36:32;98994.84;;;13.34;33.54
31239;BME280;17871;31.584;74.450;2023-02-13T01:39:01;98981.97;;;13.25;33.37
31239;BME280;17871;31.584;74.450;2023-02-13T01:41:30;98993.94;;;13.22;33.31
31239;BME280;17871;31.584;74.450;2023-02-13T01:44:00;98991.38;;;13.20;33.05
31239;BME280;17871;31.584;74.450;2023-02-13T01:46:37;98995.69;;;13.29;33.04
31239;BME280;17871;31.584;74.450;2023-02-13T01:49:17;99013.72;;;13.39;33.16
31239;BME280;17871;31.584;74.450;2023-02-13T01:51:52;99022.22;;;13.32;32.88
31239;BME280;17871;31.584;74.450;2023-02-13T01:54:26;99028.22;;;13.30;33.09
31239;BME280;17871;31.584;74.450;2023-02-13T01:57:13;99034.25;;;13.36;32.88
31239;BME280;17871;31.584;74.450;2023-02-13T01:59:56;99027.44;;;13.47;32.66
31239;BME280;17871;31.584;74.450;2023-02-13T02:02:30;99036.88;;;13.48;32.62
31239;BME280;17871;31.584;74.450;2023-02-13T02:05:03;99041.94;;;13.36;32.50
31239;BME280;17871;31.584;74.450;2023-02-13T02:07:35;99047.94;;;13.38;32.35
31239;BME280;17871;31.584;74.450;2023-02-13T02:10:10;99035.13;;;13.44;32.03
31239;BME280;17871;31.584;74.450;2023-02-13T02:12:48;99042.88;;;13.53;32.02
31239;BME280;17871;31.584;74.450;2023-02-13T02:15:22;99051.41;;;13.43;32.27
31239;BME280;17871;31.584;74.450;2023-02-13T02:17:52;99052.28;;;13.48;32.75
31239;BME280;17871;31.584;74.450;2023-02-13T02:20:40;99048.94;;;13.62;32.39
31239;BME280;17871;31.584;74.450;2023-02-13T02:34:40;99066.19;;;13.85;32.31
31239;BME280;17871;31.584;74.450;2023-02-13T02:38:11;99071.34;;;13.88;32.14
31239;BME280;17871;31.584;74.450;2023-02-13T02:46:28;99098.72;;;13.85;32.41
31239;BME280;17871;31.584;74.450;2023-02-13T02:49:14;99110.81;;;14.07;32.35
31239;BME280;17871;31.584;74.450;2023-02-13T02:52:09;99098.81;;;14.04;32.04
31239;BME280;17871;31.584;74.450;2023-02-13T02:54:51;99116.00;;;14.18;32.57
31239;BME280;17871;31.584;74.450;2023-02-13T03:01:21;99126.31;;;14.27;32.31
31239;BME280;17871;31.584;74.450;2023-02-13T03:04:39;99115.28;;;14.47;32.49
31239;BME280;17871;31.584;74.450;2023-02-13T03:07:25;99118.63;;;14.28;32.78
31239;BME280;17871;31.584;74.450;2023-02-13T03:10:04;99122.19;;;14.54;32.90
31239;BME280;17871;31.584;74.450;2023-02-13T03:16:02;99130.72;;;14.44;32.21
31239;BME280;17871;31.584;74.450;2023-02-13T03:18:54;99130.75;;;14.60;31.98
31239;BME280;17871;31.584;74.450;2023-02-13T03:22:02;99136.81;;;14.81;31.90
31239;BME280;17871;31.584;74.450;2023-02-13T03:30:45;99143.69;;;14.81;30.76
31239;BME280;17871;31.584;74.450;2023-02-13T03:33:43;99156.59;;;15.17;30.83
31239;BME280;17871;31.584;74.450;2023-02-13T03:40:00;99166.06;;;15.24;29.46
31239;BME280;17871;31.584;74.450;2023-02-13T03:42:40;99167.78;;;15.37;29.78
31239;BME280;17871;31.584;74.450;2023-02-13T03:45:15;99165.19;;;15.31;28.85
31239;BME280;17871;31.584;74.450;2023-02-13T03:48:08;99163.47;;;15.38;28.47
31239;BME280;17871;31.584;74.450;2023-02-13T03:50:59;99168.59;;;15.38;28.27
31239;BME280;17871;31.584;74.450;2023-02-13T03:53:32;99165.22;;;15.49;28.58
31239;BME280;17871;31.584;74.450;2023-02-13T03:56:04;99160.91;;;15.47;27.95
31239;BME280;17871;31.584;74.450;2023-02-13T03:58:56;99166.91;;;15.75;28.08
31239;BME280;17871;31.584;74.450;2023-02-13T04:01:55;99159.19;;;15.78;27.30
31239;BME280;17871;31.584;74.450;2023-02-13T04:04:51;99165.16;;;16.01;26.95
31239;BME280;17871;31.584;74.450;2023-02-13T04:07:24;99165.19;;;15.92;27.95
31239;BME280;17871;31.584;74.450;2023-02-13T04:10:07;99173.75;;;16.06;28.20
31239;BME280;17871;31.584;74.450;2023-02-13T04:12:54;99178.88;;;16.18;28.77
31239;BME280;17871;31.584;74.450;2023-02-13T04:15:49;99174.53;;;16.28;28.14
31239;BME280;17871;31.584;74.450;2023-02-13T04:18:26;99166.78;;;16.35;29.00
31239;BME280;17871;31.584;74.450;2023-02-13T04:21:01;99170.19;;;16.49;29.16
31239;BME280;17871;31.584;74.450;2023-02-13T04:23:31;99168.47;;;16.42;29.03
31239;BME280;17871;31.584;74.450;2023-02-13T04:26:06;99166.72;;;16.63;29.27
31239;BME280;17871;31.584;74.450;2023-02-13T04:28:37;99157.25;;;16.60;28.78
31239;BME280;17871;31.584;74.450;2023-02-13T04:31:08;99147.72;;;16.70;28.83
31239;BME280;17871;31.584;74.450;2023-02-13T04:33:37;99150.25;;;16.85;28.67
31239;BME280;17871;31.584;74.450;2023-02-13T04:36:07;99160.53;;;16.92;29.13
31239;BME280;17871;31.584;74.450;2023-02-13T04:38:36;99153.56;;;17.05;29.11
31239;BME280;17871;31.584;74.450;2023-02-13T04:41:05;99149.22;;;17.10;28.90
31239;BME280;17871;31.584;74.450;2023-02-13T04:43:35;99145.75;;;17.14;28.88
31239;BME280;17871;31.584;74.450;2023-02-13T04:46:04;99139.63;;;17.29;29.07
31239;BME280;17871;31.584;74.450;2023-02-13T04:48:35;99151.66;;;17.30;28.71
31239;BME280;17871;31.584;74.450;2023-02-13T04:51:05;99160.13;;;17.48;29.20
31239;BME280;17871;31.584;74.450;2023-02-13T04:53:35;99158.34;;;17.53;28.93
31239;BME280;17871;31.584;74.450;2023-02-13T04:56:04;99159.22;;;17.54;29.57
31239;BME280;17871;31.584;74.450;2023-02-13T04:58:33;99145.31;;;17.69;29.82
31239;BME280;17871;31.584;74.450;2023-02-13T05:01:11;99162.47;;;17.76;29.68
31239;BME280;17871;31.584;74.450;2023-02-13T05:03:41;99164.19;;;17.77;29.32
31239;BME280;17871;31.584;74.450;2023-02-13T05:06:10;99169.28;;;17.86;29.73
31239;BME280;17871;31.584;74.450;2023-02-13T05:08:39;99179.56;;;17.92;29.64
31239;BME280;17871;31.584;74.450;2023-02-13T05:11:08;99182.06;;;18.01;29.92
31239;BME280;17871;31.584;74.450;2023-02-13T05:13:38;99189.84;;;18.01;29.79
31239;BME280;17871;31.584;74.450;2023-02-13T05:16:07;99194.00;;;18.14;29.25
31239;BME280;17871;31.584;74.450;2023-02-13T05:18:36;99195.66;;;18.18;29.63
31239;BME280;17871;31.584;74.450;2023-02-13T05:21:05;99192.06;;;18.31;29.58
31239;BME280;17871;31.584;74.450;2023-02-13T05:23:53;99187.88;;;18.21;29.56
31239;BME280;17871;31.584;74.450;2023-02-13T05:26:22;99188.63;;;18.34;29.69
31239;BME280;17871;31.584;74.450;2023-02-13T05:28:51;99190.34;;;18.33;30.02
31239;BME280;17871;31.584;74.450;2023-02-13T05:31:39;99194.56;;;18.43;30.63
31239;BME280;17871;31.584;74.450;2023-02-13T05:34:08;99190.28;;;18.39;30.41
31239;BME280;17871;31.584;74.450;2023-02-13T05:36:38;99194.47;;;18.48;30.67
31239;BME280;17871;31.584;74.450;2023-02-13T05:39:07;99192.63;;;18.63;31.84
31239;BME280;17871;31.584;74.450;2023-02-13T05:41:37;99173.59;;;18.64;32.66
31239;BME280;17871;31.584;74.450;2023-02-13T05:44:06;99171.81;;;18.70;32.33
31239;BME280;17871;31.584;74.450;2023-02-13T05:46:37;99171.66;;;18.82;31.69
31239;BME280;17871;31.584;74.450;2023-02-13T05:49:13;99169.94;;;18.81;31.71
31239;BME280;17871;31.584;74.450;2023-02-13T05:51:44;99159.53;;;18.84;32.33
31239;BME280;17871;31.584;74.450;2023-02-13T05:54:15;99159.66;;;18.75;32.47
31239;BME280;17871;31.584;74.450;2023-02-13T05:56:44;99149.34;;;18.73;32.63
31239;BME280;17871;31.584;74.450;2023-02-13T05:59:15;99151.94;;;18.73;33.23
31239;BME280;17871;31.584;74.450;2023-02-13T06:01:45;99148.88;;;19.03;32.66
31239;BME280;17871;31.584;74.450;2023-02-13T06:04:15;99144.47;;;19.10;32.85
31239;BME280;17871;31.584;74.450;2023-02-13T06:06:45;99139.03;;;19.27;32.88
31239;BME280;17871;31.584;74.450;2023-02-13T06:09:20;99132.00;;;19.35;32.71
31239;BME280;17871;31.584;74.450;2023-02-13T06:11:50;99131.13;;;19.34;30.84
31239;BME280;17871;31.584;74.450;2023-02-13T06:14:22;99122.25;;;19.50;30.91
31239;BME280;17871;31.584;74.450;2023-02-13T06:16:52;99116.88;;;19.62;30.57
31239;BME280;17871;31.584;74.450;2023-02-13T06:19:23;99118.72;;;19.54;30.19
31239;BME280;17871;31.584;74.450;2023-02-13T06:21:53;99109.69;;;19.77;30.14
31239;BME280;17871;31.584;74.450;2023-02-13T06:24:24;99116.53;;;19.79;29.77
31239;BME280;17871;31.584;74.450;2023-02-13T06:26:54;99114.84;;;19.78;29.41
31239;BME280;17871;31.584;74.450;2023-02-13T06:29:25;99113.94;;;19.79;29.68
31239;BME280;17871;31.584;74.450;2023-02-13T06:31:56;99114.75;;;19.84;29.38
31239;BME280;17871;31.584;74.450;2023-02-13T06:34:28;99119.56;;;20.04;29.45
31239;BME280;17871;31.584;74.450;2023-02-13T06:37:01;99111.94;;;19.95;29.81
31239;BME280;17871;31.584;74.450;2023-02-13T06:39:34;99092.88;;;19.97;29.95
31239;BME280;17871;31.584;74.450;2023-02-13T06:42:06;99096.13;;;20.08;30.22
31239;BME280;17871;31.584;74.450;2023-02-13T06:44:38;99094.16;;;20.19;29.81
31239;BME280;17871;31.584;74.450;2023-02-13T06:47:09;99096.78;;;20.18;29.27
31239;BME280;17871;31.584;74.450;2023-02-13T06:49:40;99096.63;;;20.27;29.40
31239;BME280;17871;31.584;74.450;2023-02-13T06:52:11;99090.16;;;20.46;29.13
31239;BME280;17871;31.584;74.450;2023-02-13T06:54:43;99085.63;;;20.56;29.38
31239;BME280;17871;31.584;74.450;2023-02-13T06:57:16;99074.50;;;20.49;28.69
31239;BME280;17871;31.584;74.450;2023-02-13T06:59:47;99066.59;;;20.55;28.56
31239;BME280;17871;31.584;74.450;2023-02-13T07:02:16;99059.56;;;20.60;29.01
31239;BME280;17871;31.584;74.450;2023-02-13T07:04:45;99057.91;;;20.56;28.97
31239;BME280;17871;31.584;74.450;2023-02-13T07:07:15;99055.16;;;20.62;29.03
31239;BME280;17871;31.584;74.450;2023-02-13T07:09:43;99040.47;;;20.61;29.04
31239;BME280;17871;31.584;74.450;2023-02-13T07:12:13;99038.28;;;20.82;28.69
31239;BME280;17871;31.584;74.450;2023-02-13T07:14:42;99034.88;;;20.80;29.04
31239;BME280;17871;31.584;74.450;2023-02-13T07:17:11;99032.03;;;20.89;29.24
31239;BME280;17871;31.584;74.450;2023-02-13T07:19:40;99024.94;;;20.97;29.76
31239;BME280;17871;31.584;74.450;2023-02-13T07:22:09;99027.31;;;21.04;29.03
31239;BME280;17871;31.584;74.450;2023-02-13T07:24:39;99032.88;;;20.91;29.61
31239;BME280;17871;31.584;74.450;2023-02-13T07:27:09;99020.38;;;21.05;29.60
31239;BME280;17871;31.584;74.450;2023-02-13T07:29:38;99035.16;;;21.03;29.13
31239;BME280;17871;31.584;74.450;2023-02-13T07:32:07;99022.75;;;21.15;29.96
31239;BME280;17871;31.584;74.450;2023-02-13T07:34:36;99020.94;;;21.19;29.21
31239;BME280;17871;31.584;74.450;2023-02-13T07:37:15;99021.66;;;21.24;30.05
31239;BME280;17871;31.584;74.450;2023-02-13T07:39:45;99014.69;;;21.26;29.32
31239;BME280;17871;31.584;74.450;2023-02-13T07:42:14;99012.31;;;21.17;29.56
31239;BME280;17871;31.584;74.450;2023-02-13T07:44:44;99000.31;;;21.11;29.86
31239;BME280;17871;31.584;74.450;2023-02-13T07:47:13;98982.91;;;21.15;30.08
31239;BME280;17871;31.584;74.450;2023-02-13T07:49:45;98993.63;;;21.35;29.85
31239;BME280;17871;31.584;74.450;2023-02-13T07:52:14;98982.63;;;21.26;29.58
31239;BME280;17871;31.584;74.450;2023-02-13T07:54:44;98983.34;;;21.31;29.49
31239;BME280;17871;31.584;74.450;2023-02-13T07:57:17;98968.69;;;21.28;29.78
31239;BME280;17871;31.584;74.450;2023-02-13T07:59:46;98964.91;;;21.40;29.98
31239;BME280;17871;31.584;74.450;2023-02-13T08:02:15;98969.34;;;21.36;29.07
31239;BME280;17871;31.584;74.450;2023-02-13T08:04:44;98956.97;;;21.44;29.54
31239;BME280;17871;31.584;74.450;2023-02-13T08:07:16;98949.56;;;21.61;29.97
31239;BME280;17871;31.584;74.450;2023-02-13T08:09:47;98940.97;;;21.59;29.98
31239;BME280;17871;31.584;74.450;2023-02-13T08:12:35;98930.06;;;21.47;30.06
31239;BME280;17871;31.584;74.450;2023-02-13T08:15:04;98916.72;;;21.57;29.80
31239;BME280;17871;31.584;74.450;2023-02-13T08:17:34;98922.06;;;21.53;30.30
31239;BME280;17871;31.584;74.450;2023-02-13T08:20:04;98917.59;;;21.58;30.67
31239;BME280;17871;31.584;74.450;2023-02-13T08:22:37;98915.66;;;21.64;30.82
31239;BME280;17871;31.584;74.450;2023-02-13T08:25:07;98904.56;;;21.59;30.01
31239;BME280;17871;31.584;74.450;2023-02-13T08:27:37;98899.88;;;21.70;30.19
31239;BME280;17871;31.584;74.450;2023-02-13T08:30:08;98891.84;;;21.78;29.79
31239;BME280;17871;31.584;74.450;2023-02-13T08:32:38;98879.88;;;21.72;29.96
31239;BME280;17871;31.584;74.450;2023-02-13T08:35:21;98878.34;;;21.65;29.56
31239;BME280;17871;31.584;74.450;2023-02-13T08:37:54;98885.09;;;21.72;29.79
31239;BME280;17871;31.584;74.450;2023-02-13T08:40:23;98879.41;;;21.88;30.73
31239;BME280;17871;31.584;74.450;2023-02-13T08:42:59;98872.94;;;22.01;30.03
31239;BME280;17871;31.584;74.450;2023-02-13T08:45:29;98866.97;;;21.99;30.66
31239;BME280;17871;31.584;74.450;2023-02-13T08:47:59;98881.84;;;21.94;30.93
31239;BME280;17871;31.584;74.450;2023-02-13T08:50:31;98883.13;;;22.08;31.30
31239;BME280;17871;31.584;74.450;2023-02-13T08:53:05;98878.31;;;21.96;31.08
31239;BME280;17871;31.584;74.450;2023-02-13T08:55:34;98894.66;;;22.00;31.74
31239;BME280;17871;31.584;74.450;2023-02-13T08:58:04;98905.25;;;21.94;31.25
31239;BME280;17871;31.584;74.450;2023-02-13T09:00:33;98899.47;;;21.84;31.58
31239;BME280;17871;31.584;74.450;2023-02-13T09:03:03;98907.44;;;22.07;31.20
31239;BME280;17871;31.584;74.450;2023-02-13T09:05:36;98910.63;;;21.88;30.76
31239;BME280;17871;31.584;74.450;2023-02-13T09:08:06;98909.50;;;21.98;31.05
31239;BME280;17871;31.584;74.450;2023-02-13T09:10:36;98892.69;;;22.08;31.65
31239;BME280;17871;31.584;74.450;2023-02-13T09:13:08;98892.31;;;21.92;31.70
31239;BME280;17871;31.584;74.450;2023-02-13T09:15:39;98881.94;;;21.91;31.30
31239;BME280;17871;31.584;74.450;2023-02-13T09:18:09;98876.19;;;22.09;31.87
31239;BME280;17871;31.584;74.450;2023-02-13T09:20:38;98872.94;;;22.01;31.19
31239;BME280;17871;31.584;74.450;2023-02-13T09:23:08;98872.09;;;22.00;32.13
31239;BME280;17871;31.584;74.450;2023-02-13T09:25:37;98870.69;;;22.18;31.80
31239;BME280;17871;31.584;74.450;2023-02-13T09:28:08;98870.66;;;21.92;30.61
31239;BME280;17871;31.584;74.450;2023-02-13T09:30:38;98855.63;;;22.00;31.32
31239;BME280;17871;31.584;74.450;2023-02-13T09:33:10;98860.47;;;22.12;30.85
31239;BME280;17871;31.584;74.450;2023-02-13T09:35:43;98861.94;;;21.93;31.26
31239;BME280;17871;31.584;74.450;2023-02-13T09:38:12;98853.38;;;21.88;30.48
31239;BME280;17871;31.584;74.450;2023-02-13T09:40:52;98848.25;;;22.14;31.06
31239;BME280;17871;31.584;74.450;2023-02-13T09:43:36;98844.53;;;22.21;31.38
31239;BME280;17871;31.584;74.450;2023-02-13T09:46:18;98842.66;;;22.26;32.31
31239;BME280;17871;31.584;74.450;2023-02-13T09:48:52;98834.84;;;22.26;32.20
31239;BME280;17871;31.584;74.450;2023-02-13T09:51:23;98847.00;;;21.99;31.85
31239;BME280;17871;31.584;74.450;2023-02-13T09:54:02;98832.16;;;22.01;31.93
31239;BME280;17871;31.584;74.450;2023-02-13T10:09:03;98848.34;;;22.11;31.62
31239;BME280;17871;31.584;74.450;2023-02-13T10:14:25;98847.97;;;21.95;30.77
31239;BME280;17871;31.584;74.450;2023-02-13T10:17:23;98839.13;;;22.01;31.92
31239;BME280;17871;31.584;74.450;2023-02-13T10:19:59;98849.53;;;22.01;32.16
31239;BME280;17871;31.584;74.450;2023-02-13T10:22:54;98836.22;;;22.10;32.77
31239;BME280;17871;31.584;74.450;2023-02-13T10:25:27;98828.59;;;22.04;33.08
31239;BME280;17871;31.584;74.450;2023-02-13T10:28:11;98832.03;;;22.06;33.61
31239;BME280;17871;31.584;74.450;2023-02-13T10:30:57;98839.22;;;21.98;32.16
31239;BME280;17871;31.584;74.450;2023-02-13T10:33:38;98833.03;;;22.02;31.88
31239;BME280;17871;31.584;74.450;2023-02-13T10:38:44;98824.13;;;22.09;31.35
31239;BME280;17871;31.584;74.450;2023-02-13T10:44:46;98823.84;;;22.16;32.34
31239;BME280;17871;31.584;74.450;2023-02-13T10:47:40;98821.63;;;22.06;32.52
31239;BME280;17871;31.584;74.450;2023-02-13T10:55:58;98814.28;;;21.91;32.19
31239;BME280;17871;31.584;74.450;2023-02-13T10:58:42;98817.06;;;21.85;33.14
31239;BME280;17871;31.584;74.450;2023-02-13T11:04:17;98794.53;;;21.84;32.92
31239;BME280;17871;31.584;74.450;2023-02-13T11:06:58;98795.03;;;21.96;32.17
31239;BME280;17871;31.584;74.450;2023-02-13T11:09:33;98785.31;;;21.73;31.40
31239;BME280;17871;31.584;74.450;2023-02-13T11:15:06;98791.06;;;21.57;32.03
31239;BME280;17871;31.584;74.450;2023-02-13T11:17:39;98790.09;;;21.59;32.30
31239;BME280;17871;31.584;74.450;2023-02-13T11:20:37;98792.44;;;21.67;32.56
31239;BME280;17871;31.584;74.450;2023-02-13T11:29:17;98810.09;;;21.57;31.29
31239;BME280;17871;31.584;74.450;2023-02-13T11:32:01;98800.41;;;21.62;31.60
31239;BME280;17871;31.584;74.450;2023-02-13T11:34:33;98802.28;;;21.57;32.03
31239;BME280;17871;31.584;74.450;2023-02-13T11:39:44;98805.25;;;21.45;32.27
31239;BME280;17871;31.584;74.450;2023-02-13T11:42:34;98794.56;;;21.54;30.69
31239;BME280;17871;31.584;74.450;2023-02-13T11:45:20;98792.03;;;21.53;31.13
31239;BME280;17871;31.584;74.450;2023-02-13T11:47:52;98791.88;;;21.30;31.54
31239;BME280;17871;31.584;74.450;2023-02-13T11:56:12;98765.50;;;21.42;31.22
31239;BME280;17871;31.584;74.450;2023-02-13T11:58:42;98770.59;;;21.17;30.81
31239;BME280;17871;31.584;74.450;2023-02-13T12:04:17;98787.25;;;21.39;31.57
31239;BME280;17871;31.584;74.450;2023-02-13T12:07:28;98784.78;;;21.35;32.19
31239;BME280;17871;31.584;74.450;2023-02-13T12:15:46;98794.34;;;21.03;33.22
31239;BME280;17871;31.584;74.450;2023-02-13T12:20:56;98791.16;;;20.94;34.44
31239;BME280;17871;31.584;74.450;2023-02-13T12:23:48;98793.66;;;20.97;34.51
31239;BME280;17871;31.584;74.450;2023-02-13T12:26:47;98795.19;;;20.73;35.33
31239;BME280;17871;31.584;74.450;2023-02-13T12:32:20;98806.00;;;20.89;35.97
31239;BME280;17871;31.584;74.450;2023-02-13T12:38:01;98791.66;;;20.76;36.66
31239;BME280;17871;31.584;74.450;2023-02-13T12:47:10;98785.22;;;20.58;37.63
31239;BME280;17871;31.584;74.450;2023-02-13T13:01:08;98798.06;;;20.30;36.48
31239;BME280;17871;31.584;74.450;2023-02-13T13:03:50;98801.03;;;20.15;36.93
31239;BME280;17871;31.584;74.450;2023-02-13T13:06:47;98803.41;;;20.23;37.82
31239;BME280;17871;31.584;74.450;2023-02-13T13:18:20;98818.69;;;19.99;38.67
31239;BME280;17871;31.584;74.450;2023-02-13T13:21:06;98828.56;;;19.85;39.00
31239;BME280;17871;31.584;74.450;2023-02-13T13:26:20;98834.78;;;19.77;39.37
31239;BME280;17871;31.584;74.450;2023-02-13T13:28:54;98840.13;;;19.71;39.27
31239;BME280;17871;31.584;74.450;2023-02-13T13:31:26;98836.78;;;19.65;39.72
31239;BME280;17871;31.584;74.450;2023-02-13T13:34:01;98843.66;;;19.66;39.79
31239;BME280;17871;31.584;74.450;2023-02-13T13:36:39;98848.09;;;19.61;39.63
31239;BME280;17871;31.584;74.450;2023-02-13T13:39:23;98852.84;;;19.43;40.50
31239;BME280;17871;31.584;74.450;2023-02-13T13:42:07;98849.31;;;19.45;40.52
31239;BME280;17871;31.584;74.450;2023-02-13T13:45:08;98855.22;;;19.52;40.19
31239;BME280;17871;31.584;74.450;2023-02-13T13:50:32;98853.81;;;19.36;39.63
31239;BME280;17871;31.584;74.450;2023-02-13T13:53:13;98853.75;;;19.39;39.96
31239;BME280;17871;31.584;74.450;2023-02-13T13:58:25;98858.94;;;19.37;40.03
31239;BME280;17871;31.584;74.450;2023-02-13T14:01:15;98865.03;;;19.36;39.59
31239;BME280;17871;31.584;74.450;2023-02-13T14:06:20;98854.28;;;19.13;39.91
31239;BME280;17871;31.584;74.450;2023-02-13T14:08:58;98868.19;;;19.07;40.21
31239;BME280;17871;31.584;74.450;2023-02-13T14:16:57;98877.25;;;18.87;39.84
31239;BME280;17871;31.584;74.450;2023-02-13T14:19:37;98879.75;;;18.90;40.54
31239;BME280;17871;31.584;74.450;2023-02-13T14:24:59;98873.00;;;18.83;40.26
31239;BME280;17871;31.584;74.450;2023-02-13T14:27:35;98871.34;;;18.77;40.01
31239;BME280;17871;31.584;74.450;2023-02-13T14:30:28;98876.78;;;18.63;40.98
31239;BME280;17871;31.584;74.450;2023-02-13T14:33:20;98889.75;;;18.62;41.13
31239;BME280;17871;31.584;74.450;2023-02-13T14:35:59;98897.50;;;18.63;41.02
31239;BME280;17871;31.584;74.450;2023-02-13T14:38:30;98892.69;;;18.39;41.25
31239;BME280;17871;31.584;74.450;2023-02-13T14:40:59;98897.09;;;18.33;41.47
31239;BME280;17871;31.584;74.450;2023-02-13T14:43:48;98894.34;;;18.43;41.74
31239;BME280;17871;31.584;74.450;2023-02-13T14:46:38;98904.75;;;18.39;41.96
31239;BME280;17871;31.584;74.450;2023-02-13T14:49:32;98903.09;;;18.36;42.28
31239;BME280;17871;31.584;74.450;2023-02-13T14:52:05;98903.28;;;18.24;41.77
31239;BME280;17871;31.584;74.450;2023-02-13T14:54:46;98910.94;;;18.30;41.54
31239;BME280;17871;31.584;74.450;2023-02-13T14:57:23;98914.41;;;18.28;41.93
31239;BME280;17871;31.584;74.450;2023-02-13T15:00:14;98917.91;;;18.25;42.60
31239;BME280;17871;31.584;74.450;2023-02-13T15:02:48;98911.25;;;18.10;43.69
31239;BME280;17871;31.584;74.450;2023-02-13T15:05:19;98919.06;;;18.06;42.02
31239;BME280;17871;31.584;74.450;2023-02-13T15:08:58;98918.00;;;18.21;41.71
31239;BME280;17871;31.584;74.450;2023-02-13T15:10:56;98917.34;;;18.06;42.21
31239;BME280;17871;31.584;74.450;2023-02-13T15:13:34;98925.91;;;18.10;42.37
31239;BME280;17871;31.584;74.450;2023-02-13T15:16:08;98921.72;;;18.01;42.76
31239;BME280;17871;31.584;74.450;2023-02-13T15:18:49;98926.88;;;18.01;42.77
31239;BME280;17871;31.584;74.450;2023-02-13T15:21:25;98933.09;;;17.90;42.70
31239;BME280;17871;31.584;74.450;2023-02-13T15:24:01;98934.09;;;17.81;42.40
31239;BME280;17871;31.584;74.450;2023-02-13T15:26:30;98933.31;;;17.75;42.43
31239;BME280;17871;31.584;74.450;2023-02-13T15:29:02;98931.50;;;17.80;43.26
31239;BME280;17871;31.584;74.450;2023-02-13T15:31:37;98937.66;;;17.71;43.25
31239;BME280;17871;31.584;74.450;2023-02-13T15:34:31;98952.91;;;17.89;42.86
31239;BME280;17871;31.584;74.450;2023-02-13T15:37:03;98952.38;;;17.65;43.00
31239;BME280;17871;31.584;74.450;2023-02-13T15:39:32;98959.28;;;17.62;43.07
31239;BME280;17871;31.584;74.450;2023-02-13T15:42:02;98959.31;;;17.59;43.67
31239;BME280;17871;31.584;74.450;2023-02-13T15:44:34;98966.22;;;17.60;44.23
31239;BME280;17871;31.584;74.450;2023-02-13T15:47:26;98979.88;;;17.69;43.90
31239;BME280;17871;31.584;74.450;2023-02-13T15:49:56;98971.50;;;17.48;44.04
31239;BME280;17871;31.584;74.450;2023-02-13T15:52:35;98969.63;;;17.62;43.97
31239;BME280;17871;31.584;74.450;2023-02-13T15:55:18;98969.66;;;17.59;43.69
31239;BME280;17871;31.584;74.450;2023-02-13T15:57:47;98964.66;;;17.44;44.00